Aérodrome :
LOGIN :

S'inscrire | Disclaimer

   EN    FR    IT 

 










Légende :    VFR   VFR Marginal   IFR   IFR Intensif   IFR Très Intensif
Visi : 
Plafond : 
>= 8 km
>= 3000ft
5 à 8 km
1000 à 3000 ft
1500m à 5 km
500 à 1000 ft
800 à 1500m
200 à 500 ft
< 800m
< 200 ft
Symboles :   Orages  Brouillard  Fortes neiges  Fortes précipitations  Vent > 20 kt
SIGMETs :   Divers  Orages  Givrage  Turbulence  Onde Orograph.  Cendres Volcan.






- Altitude de l'aérodrome : 117 ft
- Code IATA : NWI


EGSH - Norwich

DERNIER METAR :
  • 070720Z 32012KT 290V350 9999 BKN023 16/11 Q1026 NOSIG

METARs EXPIRÉS :
  • 070650Z 32011KT 280V350 9999 BKN023 16/12 Q1026
  • 070620Z 32011KT 9999 BKN021 16/12 Q1025
  • 070550Z 32010KT 280V350 9999 SCT020 BKN026 16/12 Q1025 NOSIG
  • 070520Z 32010KT 290V010 9999 SCT018 BKN023 16/12 Q1025
  • 070450Z 32010KT 9999 FEW019 SCT024 BKN032 16/12 Q1024

TAF TAF EGSH
Valide du 07 à 06h jusqu'au 07 à 15h UTC


070457Z 0706/0715 32009KT 9999 SCT025
ATIS : +44 1603 420 640



MET'MAP, la Météo Aéronautique d'un coup d'oeil ! - Copyright ORBIFLY Décembre 2007 - Disclaimer

ORBIFLY MET'MAP TEAM :

Programmation & Développement : Alexandra Zaïnal
Sur une idée originale de : Baudouin d'Aumeries
Soutien technique & logistique : Manuel Goepfert
Assistance : Marc-Olivier Méhu




SOURCES & CREDITS :

   NOAA